Terminal Aerodrome Forecast
Issued by NWS Albany, NY

Home | Current Version | Previous Version | Text Only | Print | Product List | Glossary On
Versions: 1 2 3 4 5 6 7 8 9 10 11 12 13 14 15 16 17
560
FTUS41 KALY 261747
TAFALB
TAF
KALB 261747Z 2618/2718 VRB03KT P6SM FEW050 SCT100 BKN250
     FM262000 19007KT P6SM VCSH SCT050 BKN100
     FM262300 18004KT P6SM BKN050 BKN100
     FM270800 17004KT 6SM HZ BKN050
     FM271300 18007KT P6SM SCT050 SCT250=

USA.gov is the U.S. government's official web portal to all federal, state and local government web resources and services.